createdAt,value
2018-12-29T00:00:02.668Z,2.9
2018-12-29T00:05:02.544Z,2.9
2018-12-29T00:10:03.180Z,3.0
2018-12-29T00:15:02.720Z,3.0
2018-12-29T00:20:02.294Z,3.0
2018-12-29T00:25:02.867Z,3.0
2018-12-29T00:30:02.356Z,3.0
2018-12-29T00:35:02.975Z,3.0
2018-12-29T00:40:02.458Z,3.0
2018-12-29T00:45:03.058Z,3.0
2018-12-29T00:50:02.558Z,3.0
2018-12-29T00:55:03.074Z,3.0
2018-12-29T01:00:02.577Z,3.0
2018-12-29T01:05:03.256Z,3.2
2018-12-29T01:10:02.805Z,3.2
2018-12-29T01:15:09.620Z,3.0
2018-12-29T01:20:02.666Z,3.0
2018-12-29T01:25:03.280Z,3.2
2018-12-29T01:30:02.800Z,3.2
2018-12-29T01:35:02.332Z,3.2
2018-12-29T01:40:02.809Z,3.2
2018-12-29T01:45:02.353Z,3.2
2018-12-29T01:50:02.817Z,3.2
2018-12-29T01:55:02.517Z,3.2
2018-12-29T02:00:02.967Z,3.2
2018-12-29T02:05:02.625Z,3.2
2018-12-29T02:10:03.224Z,3.2
2018-12-29T02:15:02.656Z,3.2
2018-12-29T02:20:03.196Z,3.2
2018-12-29T02:25:02.686Z,3.2
2018-12-29T02:30:03.206Z,3.2
2018-12-29T02:35:02.804Z,3.2
2018-12-29T02:40:02.386Z,3.2
2018-12-29T02:45:03.111Z,3.2
2018-12-29T02:50:02.748Z,3.2
2018-12-29T02:55:03.329Z,3.2
2018-12-29T03:00:02.906Z,3.2
2018-12-29T03:05:02.407Z,3.2
2018-12-29T03:10:02.910Z,3.2
2018-12-29T03:15:02.592Z,3.2
2018-12-29T03:20:03.198Z,3.2
2018-12-29T03:25:02.637Z,3.2
2018-12-29T03:30:03.413Z,3.2
2018-12-29T03:35:02.930Z,3.2
2018-12-29T03:40:02.437Z,3.2
2018-12-29T03:45:02.994Z,3.2
2018-12-29T03:50:02.494Z,3.2
2018-12-29T03:55:03.029Z,3.2
2018-12-29T04:00:02.556Z,3.2
2018-12-29T04:05:03.043Z,3.2
2018-12-29T04:10:02.522Z,3.2
2018-12-29T04:15:02.985Z,3.2
2018-12-29T04:20:02.501Z,3.2
2018-12-29T04:25:03.085Z,3.2
2018-12-29T04:30:02.576Z,3.5
2018-12-29T04:35:03.011Z,3.5
2018-12-29T04:40:02.533Z,3.5
2018-12-29T04:45:03.039Z,3.5
2018-12-29T04:50:02.540Z,3.5
2018-12-29T04:55:02.979Z,3.5
2018-12-29T05:00:02.711Z,3.7
2018-12-29T05:05:03.299Z,3.7
2018-12-29T05:10:02.865Z,3.7
2018-12-29T05:15:02.408Z,3.7
2018-12-29T05:20:02.854Z,3.7
2018-12-29T05:25:02.441Z,3.7
2018-12-29T05:30:02.913Z,3.7
2018-12-29T05:35:02.456Z,3.7
2018-12-29T05:40:03.053Z,3.7
2018-12-29T05:45:03.692Z,3.7
2018-12-29T05:50:02.315Z,3.7
2018-12-29T05:55:02.793Z,3.7
2018-12-29T06:00:02.261Z,3.7
2018-12-29T06:05:02.735Z,3.7
2018-12-29T06:10:02.315Z,3.7
2018-12-29T06:15:02.858Z,3.7
2018-12-29T06:20:02.416Z,3.7
2018-12-29T06:25:02.969Z,4.0
2018-12-29T06:30:02.435Z,4.0
2018-12-29T06:35:02.885Z,4.0
2018-12-29T06:40:02.452Z,4.0
2018-12-29T06:45:02.836Z,4.0
2018-12-29T06:50:02.336Z,4.0
2018-12-29T06:55:02.900Z,4.0
2018-12-29T07:00:02.419Z,4.0
2018-12-29T07:05:02.949Z,4.0
2018-12-29T07:10:02.412Z,4.0
2018-12-29T07:15:05.188Z,4.0
2018-12-29T07:20:02.950Z,4.3
2018-12-29T07:25:02.442Z,4.0
2018-12-29T07:30:03.005Z,4.0
2018-12-29T07:35:02.522Z,4.3
2018-12-29T07:40:02.985Z,4.3
2018-12-29T07:45:02.463Z,4.0
2018-12-29T07:50:02.939Z,4.3
2018-12-29T07:55:02.444Z,4.3
2018-12-29T08:00:02.973Z,4.3
2018-12-29T08:05:02.580Z,4.3
2018-12-29T08:10:03.116Z,4.5
2018-12-29T08:15:02.608Z,4.5
2018-12-29T08:20:03.248Z,4.5
2018-12-29T08:25:02.791Z,4.5
2018-12-29T08:30:02.298Z,4.5
2018-12-29T08:35:02.728Z,4.5
2018-12-29T08:40:03.275Z,4.5
2018-12-29T08:45:02.737Z,4.8
2018-12-29T08:50:03.209Z,4.8
2018-12-29T08:55:02.663Z,4.8
2018-12-29T09:00:03.148Z,4.8
2018-12-29T09:05:02.661Z,4.8
2018-12-29T09:10:03.220Z,4.8
2018-12-29T09:15:02.866Z,4.8
2018-12-29T09:20:02.391Z,5.0
2018-12-29T09:25:02.867Z,4.8
2018-12-29T09:30:02.721Z,5.0
2018-12-29T09:35:02.339Z,5.0
2018-12-29T09:40:02.889Z,5.0
2018-12-29T09:45:02.513Z,5.0
2018-12-29T09:50:03.084Z,5.0
2018-12-29T09:55:02.553Z,5.3
2018-12-29T10:00:03.032Z,5.3
2018-12-29T10:05:02.648Z,5.3
2018-12-29T10:10:02.333Z,5.3
2018-12-29T10:15:02.791Z,5.4
2018-12-29T10:20:02.456Z,5.4
2018-12-29T10:25:02.915Z,5.4
2018-12-29T10:30:02.413Z,5.4
2018-12-29T10:35:03.014Z,5.5
2018-12-29T10:40:02.565Z,5.5
2018-12-29T10:45:03.074Z,5.5
2018-12-29T10:50:02.588Z,5.8
2018-12-29T10:55:03.119Z,5.9
2018-12-29T11:00:02.646Z,5.9
2018-12-29T11:05:03.274Z,5.9
2018-12-29T11:10:02.876Z,5.8
2018-12-29T11:15:02.479Z,5.9
2018-12-29T11:20:03.055Z,5.9
2018-12-29T11:25:02.648Z,5.9
2018-12-29T11:30:03.174Z,5.9
2018-12-29T11:35:02.885Z,6.0
2018-12-29T11:40:02.514Z,6.0
2018-12-29T11:45:03.036Z,6.1
2018-12-29T11:50:02.584Z,6.1
2018-12-29T11:55:03.141Z,6.4
2018-12-29T12:00:02.676Z,6.4
2018-12-29T12:05:02.615Z,6.4
2018-12-29T12:10:03.251Z,6.4
2018-12-29T12:15:02.934Z,6.4
2018-12-29T12:20:02.599Z,6.4
2018-12-29T12:25:03.171Z,6.4
2018-12-29T12:30:02.699Z,6.4
2018-12-29T12:35:02.315Z,6.4
2018-12-29T12:40:02.925Z,6.5
2018-12-29T12:45:02.661Z,6.5
2018-12-29T12:50:02.552Z,6.0
2018-12-29T12:55:02.475Z,5.9
2018-12-29T13:00:03.156Z,5.9
2018-12-29T13:05:02.569Z,5.8
2018-12-29T13:10:03.160Z,5.9
2018-12-29T13:15:02.440Z,5.9
2018-12-29T13:20:05.012Z,5.8
2018-12-29T13:25:02.680Z,5.8
2018-12-29T13:30:02.301Z,5.8
2018-12-29T13:35:02.839Z,5.8
2018-12-29T13:40:02.656Z,5.8
2018-12-29T13:45:03.246Z,5.8
2018-12-29T13:50:03.014Z,5.8
2018-12-29T13:55:02.610Z,5.9
2018-12-29T14:00:03.343Z,5.9
2018-12-29T14:05:03.028Z,6.0
2018-12-29T14:10:02.750Z,6.0
2018-12-29T14:15:03.300Z,6.0
2018-12-29T14:20:02.858Z,5.9
2018-12-29T14:25:02.459Z,5.9
2018-12-29T14:30:02.946Z,5.9
2018-12-29T14:35:02.600Z,5.9
2018-12-29T14:40:03.233Z,5.9
2018-12-29T14:45:03.108Z,5.9
2018-12-29T14:50:02.582Z,5.9
2018-12-29T14:55:02.329Z,5.8
2018-12-29T15:00:02.862Z,5.8
2018-12-29T15:05:02.497Z,5.9
2018-12-29T15:10:03.137Z,5.9
2018-12-29T15:15:02.837Z,5.9
2018-12-29T15:20:02.508Z,5.9
2018-12-29T15:25:03.117Z,5.9
2018-12-29T15:30:02.795Z,6.0
2018-12-29T15:35:02.543Z,6.0
2018-12-29T15:40:02.346Z,6.0
2018-12-29T15:45:02.968Z,6.0
2018-12-29T15:50:02.740Z,6.1
2018-12-29T15:55:02.341Z,6.1
2018-12-29T16:00:02.980Z,6.1
2018-12-29T16:05:02.646Z,6.1
2018-12-29T16:10:02.431Z,6.1
2018-12-29T16:15:03.095Z,6.1
2018-12-29T16:20:02.935Z,6.4
2018-12-29T16:25:02.542Z,6.4
2018-12-29T16:29:14.982Z,6.4
2018-12-29T16:30:03.197Z,6.4
2018-12-29T16:35:02.857Z,6.4
2018-12-29T16:40:02.550Z,6.5
2018-12-29T16:45:02.910Z,6.5
2018-12-29T16:50:02.799Z,6.5
2018-12-29T16:55:02.341Z,6.5
2018-12-29T17:00:02.992Z,6.6
2018-12-29T17:05:02.827Z,6.5
2018-12-29T17:10:02.645Z,6.6
2018-12-29T17:15:03.274Z,6.6
2018-12-29T17:20:02.961Z,6.9
2018-12-29T17:25:02.288Z,6.9
2018-12-29T17:30:03.000Z,7.0
2018-12-29T17:35:02.640Z,7.0
2018-12-29T17:38:11.769Z,7.0
2018-12-29T17:40:02.345Z,7.0
2018-12-29T17:45:02.841Z,7.0
2018-12-29T17:50:02.561Z,7.0
2018-12-29T17:55:03.174Z,7.1
2018-12-29T18:00:02.802Z,7.4
2018-12-29T18:02:54.654Z,7.4
2018-12-29T18:05:02.595Z,7.4
2018-12-29T18:06:54.985Z,7.4
2018-12-29T18:10:03.255Z,7.5
2018-12-29T18:14:07.646Z,7.5
2018-12-29T18:15:02.898Z,7.5
2018-12-29T18:15:23.278Z,7.5
2018-12-29T18:20:02.493Z,7.5
2018-12-29T18:25:03.226Z,7.6
2018-12-29T18:30:03.366Z,7.9
2018-12-29T18:35:02.686Z,8.0
2018-12-29T18:40:02.910Z,8.1
2018-12-29T18:45:03.055Z,8.3
2018-12-29T18:50:03.190Z,8.3
2018-12-29T18:55:02.395Z,8.3
2018-12-29T19:00:02.575Z,8.3
2018-12-29T19:05:02.661Z,8.3
2018-12-29T19:10:02.899Z,8.3
2018-12-29T19:15:03.043Z,8.5
2018-12-29T19:20:02.666Z,8.8
2018-12-29T19:25:02.894Z,8.8
2018-12-29T19:30:03.249Z,9.0
2018-12-29T19:35:03.062Z,9.0
2018-12-29T19:45:02.658Z,9.3
2018-12-29T19:50:03.109Z,9.5
2018-12-29T19:55:03.309Z,9.3
2018-12-29T20:00:02.652Z,9.1
2018-12-29T20:05:02.970Z,9.1
2018-12-29T20:10:03.106Z,9.1
2018-12-29T20:15:03.238Z,9.0
2018-12-29T20:20:02.453Z,9.0
2018-12-29T20:25:02.596Z,9.1
2018-12-29T20:30:02.831Z,9.0
2018-12-29T20:35:02.967Z,9.0
2018-12-29T20:40:03.205Z,8.8
2018-12-29T20:45:03.336Z,8.8
2018-12-29T20:50:09.343Z,8.8
2018-12-29T20:55:02.823Z,8.8
2018-12-29T21:00:02.983Z,8.5
2018-12-29T21:05:03.175Z,8.5
2018-12-29T21:10:02.372Z,8.5
2018-12-29T21:15:02.527Z,8.3
2018-12-29T21:25:03.466Z,8.3
2018-12-29T21:30:02.645Z,8.3
2018-12-29T21:35:02.884Z,8.3
2018-12-29T21:40:03.207Z,8.3
2018-12-29T21:45:02.504Z,8.3
2018-12-29T21:50:02.747Z,8.3
2018-12-29T21:55:02.893Z,8.3
2018-12-29T22:00:03.027Z,8.3
2018-12-29T22:05:03.156Z,8.3
2018-12-29T22:10:02.381Z,8.3
2018-12-29T22:15:02.523Z,8.3
2018-12-29T22:20:02.633Z,8.1
2018-12-29T22:25:02.808Z,8.1
2018-12-29T22:30:02.947Z,8.3
2018-12-29T22:35:03.050Z,8.1
2018-12-29T22:40:03.297Z,8.1
2018-12-29T22:45:02.394Z,8.1
2018-12-29T22:50:02.533Z,8.1
2018-12-29T22:55:02.685Z,8.1
2018-12-29T23:00:02.891Z,8.1
2018-12-29T23:05:02.840Z,8.1
2018-12-29T23:10:03.091Z,8.1
2018-12-29T23:15:03.372Z,8.1
2018-12-29T23:20:02.630Z,8.1
2018-12-29T23:25:03.176Z,8.1
2018-12-29T23:30:02.408Z,8.1
2018-12-29T23:35:02.638Z,8.1
2018-12-29T23:40:02.865Z,8.1
2018-12-29T23:45:03.017Z,8.0
2018-12-29T23:50:02.633Z,8.1
2018-12-29T23:55:02.864Z,8.1
